createdAt,value
2023-02-08T00:01:21.906Z,4.50
2023-02-08T00:03:52.104Z,3.60
2023-02-08T00:06:24.873Z,4.60
2023-02-08T00:08:54.886Z,4.50
2023-02-08T00:13:55.144Z,1.90
2023-02-08T00:16:25.312Z,4.10
2023-02-08T00:18:56.293Z,2.80
2023-02-08T00:21:29.028Z,4.00
2023-02-08T00:23:59.001Z,4.00
2023-02-08T00:26:30.032Z,4.10
2023-02-08T00:29:00.026Z,4.00
2023-02-08T00:36:33.283Z,3.90
2023-02-08T00:39:03.264Z,4.50
2023-02-08T00:41:33.274Z,3.90
2023-02-08T00:44:03.266Z,3.90
2023-02-08T00:46:33.429Z,3.10
2023-02-08T00:51:36.901Z,3.80
2023-02-08T00:56:37.209Z,4.70
2023-02-08T00:59:07.250Z,3.90
2023-02-08T01:01:37.520Z,3.60
2023-02-08T01:04:08.370Z,3.80
2023-02-08T01:06:40.988Z,3.80
2023-02-08T01:11:41.511Z,4.90
2023-02-08T01:16:41.739Z,4.10
2023-02-08T01:21:45.500Z,3.70
2023-02-08T01:24:15.907Z,3.70
2023-02-08T01:26:46.108Z,2.70
2023-02-08T01:29:16.572Z,3.60
2023-02-08T01:31:48.074Z,3.70
2023-02-08T01:34:18.105Z,4.40
2023-02-08T01:36:50.898Z,3.70
2023-02-08T01:41:51.154Z,4.00
2023-02-08T01:44:51.100Z,3.60
2023-02-08T01:49:51.425Z,3.70
2023-02-08T01:52:28.857Z,3.80
2023-02-08T01:55:02.381Z,3.70
2023-02-08T01:57:33.247Z,3.60
2023-02-08T02:00:07.155Z,3.50
2023-02-08T02:02:38.862Z,3.50
2023-02-08T02:05:10.310Z,3.50
2023-02-08T02:07:43.818Z,3.50
2023-02-08T02:10:18.122Z,3.50
2023-02-08T02:12:48.521Z,2.10
2023-02-08T02:17:49.031Z,3.50
2023-02-08T02:20:25.857Z,3.50
2023-02-08T02:23:25.707Z,3.70
2023-02-08T02:26:26.382Z,3.70
2023-02-08T02:29:33.326Z,3.40
2023-02-08T02:32:33.199Z,3.40
2023-02-08T02:35:08.017Z,3.30
2023-02-08T02:37:53.328Z,3.30
2023-02-08T02:40:29.581Z,3.30
2023-02-08T02:43:21.543Z,3.20
2023-02-08T02:45:59.187Z,3.20
2023-02-08T02:48:41.236Z,3.20
2023-02-08T02:51:14.986Z,3.20
2023-02-08T02:53:51.263Z,3.10
2023-02-08T02:56:25.374Z,3.10
2023-02-08T02:58:59.059Z,3.10
2023-02-08T03:01:30.249Z,3.40
2023-02-08T03:04:03.064Z,3.20
2023-02-08T03:06:46.023Z,3.10
2023-02-08T03:09:42.977Z,3.10
2023-02-08T03:12:25.513Z,3.00
2023-02-08T03:15:05.888Z,3.50
2023-02-08T03:17:54.675Z,3.10
2023-02-08T03:20:31.292Z,2.90
2023-02-08T03:23:07.445Z,3.50
2023-02-08T03:25:45.684Z,2.90
2023-02-08T03:28:25.526Z,2.90
2023-02-08T03:31:01.931Z,2.90
2023-02-08T03:33:38.415Z,2.70
2023-02-08T03:36:17.654Z,2.70
2023-02-08T03:38:50.887Z,2.90
2023-02-08T03:41:25.874Z,2.90
2023-02-08T03:44:02.825Z,2.90
2023-02-08T03:46:38.659Z,3.00
2023-02-08T03:49:12.654Z,3.00
2023-02-08T03:51:46.439Z,2.80
2023-02-08T03:54:20.417Z,2.80
2023-02-08T03:56:56.886Z,2.30
2023-02-08T03:59:30.346Z,2.70
2023-02-08T04:02:02.843Z,2.80
2023-02-08T04:04:36.897Z,2.80
2023-02-08T04:07:09.803Z,2.70
2023-02-08T04:12:10.926Z,3.10
2023-02-08T04:14:41.098Z,2.30
2023-02-08T04:19:43.752Z,2.70
2023-02-08T04:22:16.466Z,2.60
2023-02-08T04:24:46.466Z,2.80
2023-02-08T04:29:47.032Z,2.60
2023-02-08T04:32:17.214Z,3.20
2023-02-08T04:34:47.272Z,2.30
2023-02-08T04:37:20.123Z,2.60
2023-02-08T04:44:50.700Z,2.80
2023-02-08T04:52:23.837Z,2.70
2023-02-08T05:02:25.220Z,3.10
2023-02-08T05:07:28.377Z,2.50
2023-02-08T05:12:28.781Z,3.20
2023-02-08T05:14:58.837Z,2.60
2023-02-08T05:17:28.877Z,0.50
2023-02-08T05:22:31.938Z,2.50
2023-02-08T05:32:32.815Z,1.80
2023-02-08T05:35:02.837Z,2.80
2023-02-08T05:37:35.643Z,2.60
2023-02-08T05:45:06.663Z,2.50
2023-02-08T05:47:36.736Z,2.30
2023-02-08T05:50:07.321Z,2.30
2023-02-08T05:52:39.940Z,0.90
2023-02-08T05:55:10.716Z,1.90
2023-02-08T05:57:40.816Z,2.10
2023-02-08T06:00:12.502Z,1.40
2023-02-08T06:05:12.785Z,3.40
2023-02-08T06:07:45.454Z,2.20
2023-02-08T06:10:15.514Z,2.20
2023-02-08T06:12:45.601Z,2.50
2023-02-08T06:15:15.624Z,2.70
2023-02-08T06:20:18.960Z,3.40
2023-02-08T06:22:51.736Z,2.20
2023-02-08T06:25:21.850Z,2.40
2023-02-08T06:32:52.759Z,1.90
2023-02-08T06:37:55.859Z,0.90
2023-02-08T06:40:25.867Z,1.90
2023-02-08T06:47:56.407Z,2.00
2023-02-08T06:52:59.232Z,2.10
2023-02-08T06:57:59.818Z,1.30
2023-02-08T07:00:29.799Z,2.20
2023-02-08T07:03:01.146Z,2.10
2023-02-08T07:08:04.111Z,1.90
2023-02-08T07:10:34.207Z,2.00
2023-02-08T07:13:05.236Z,2.40
2023-02-08T07:15:35.772Z,1.90
2023-02-08T07:18:06.117Z,2.20
2023-02-08T07:23:09.074Z,1.80
2023-02-08T07:25:39.047Z,1.80
2023-02-08T07:33:10.774Z,2.90
2023-02-08T07:38:13.867Z,2.00
2023-02-08T07:43:14.550Z,2.30
2023-02-08T07:45:44.765Z,2.30
2023-02-08T07:48:15.095Z,2.60
2023-02-08T07:53:18.282Z,2.30
2023-02-08T07:55:49.774Z,2.40
2023-02-08T08:05:54.972Z,3.10
2023-02-08T08:08:27.745Z,2.80
2023-02-08T08:10:57.808Z,3.20
2023-02-08T08:13:27.973Z,4.00
2023-02-08T08:20:59.664Z,4.30
2023-02-08T08:23:33.429Z,6.60
2023-02-08T08:26:03.827Z,8.10
2023-02-08T08:28:34.103Z,6.30
2023-02-08T08:31:04.314Z,8.80
2023-02-08T08:33:34.526Z,8.70
2023-02-08T08:36:04.573Z,9.80
2023-02-08T08:38:38.824Z,8.90
2023-02-08T08:41:11.632Z,10.40
2023-02-08T08:43:42.210Z,11.00
2023-02-08T08:46:13.369Z,12.00
2023-02-08T08:48:43.446Z,11.20
2023-02-08T08:51:14.309Z,12.40
2023-02-08T08:53:47.035Z,12.20
2023-02-08T08:56:17.090Z,12.60
2023-02-08T08:58:47.190Z,13.20
2023-02-08T09:01:17.318Z,13.60
2023-02-08T09:03:47.482Z,14.10
2023-02-08T09:06:17.561Z,14.40
2023-02-08T09:08:51.748Z,14.90
2023-02-08T09:11:22.025Z,15.20
2023-02-08T09:13:55.592Z,16.20
2023-02-08T09:16:27.199Z,16.00
2023-02-08T09:18:57.517Z,17.10
2023-02-08T09:21:28.178Z,17.20
2023-02-08T09:24:01.007Z,17.60
2023-02-08T09:26:31.265Z,17.70
2023-02-08T09:29:01.724Z,18.00
2023-02-08T09:31:33.861Z,18.60
2023-02-08T09:34:04.433Z,18.90
2023-02-08T09:36:36.628Z,19.20
2023-02-08T09:39:12.740Z,19.70
2023-02-08T09:42:00.959Z,20.10
2023-02-08T09:44:37.529Z,20.20
2023-02-08T09:47:16.777Z,20.30
2023-02-08T09:49:58.678Z,20.10
2023-02-08T09:52:35.947Z,20.00
2023-02-08T09:55:13.542Z,19.60
2023-02-08T09:57:44.320Z,20.10
2023-02-08T10:00:19.274Z,20.80
2023-02-08T10:02:51.609Z,20.70
2023-02-08T10:05:25.103Z,20.70
2023-02-08T10:07:56.389Z,20.70
2023-02-08T10:10:40.152Z,21.10
2023-02-08T10:13:40.388Z,21.50
2023-02-08T10:16:19.980Z,22.10
2023-02-08T10:19:00.178Z,23.00
2023-02-08T10:21:43.648Z,23.40
2023-02-08T10:24:20.373Z,23.60
2023-02-08T10:27:00.108Z,24.00
2023-02-08T10:29:56.828Z,25.70
2023-02-08T10:32:42.729Z,23.90
2023-02-08T10:35:25.057Z,24.90
2023-02-08T10:37:56.806Z,24.90
2023-02-08T10:40:35.790Z,25.70
2023-02-08T10:43:34.268Z,25.90
2023-02-08T10:46:12.855Z,26.50
2023-02-08T10:48:52.575Z,26.80
2023-02-08T10:51:23.826Z,26.70
2023-02-08T10:53:53.898Z,26.70
2023-02-08T10:56:45.817Z,26.90
2023-02-08T10:59:24.981Z,27.10
2023-02-08T11:01:56.565Z,26.80
2023-02-08T11:04:26.879Z,26.60
2023-02-08T11:06:57.094Z,26.50
2023-02-08T11:09:29.247Z,26.50
2023-02-08T11:12:01.386Z,26.60
2023-02-08T11:14:47.118Z,26.40
2023-02-08T11:17:30.419Z,26.20
2023-02-08T11:20:02.208Z,25.50
2023-02-08T11:22:34.958Z,24.30
2023-02-08T11:25:07.539Z,23.00
2023-02-08T11:27:40.567Z,21.10
2023-02-08T11:30:24.607Z,19.20
2023-02-08T11:33:23.362Z,18.20
2023-02-08T11:36:12.144Z,16.60
2023-02-08T11:38:45.574Z,15.90
2023-02-08T11:41:21.498Z,15.00
2023-02-08T11:44:01.740Z,14.40
2023-02-08T11:46:37.287Z,13.70
2023-02-08T11:49:07.584Z,12.40
2023-02-08T11:51:40.552Z,13.70
2023-02-08T11:54:41.709Z,13.10
2023-02-08T11:57:19.496Z,13.50
2023-02-08T11:59:50.125Z,14.00
2023-02-08T12:02:40.163Z,13.30
2023-02-08T12:05:16.594Z,13.40
2023-02-08T12:08:12.842Z,12.90
2023-02-08T12:11:10.893Z,13.70
2023-02-08T12:14:09.117Z,12.60
2023-02-08T12:16:54.023Z,12.40
2023-02-08T12:19:51.817Z,12.50
2023-02-08T12:22:27.189Z,12.90
2023-02-08T12:25:10.095Z,12.70
2023-02-08T12:27:46.272Z,12.10
2023-02-08T12:30:25.400Z,13.40
2023-02-08T12:33:26.261Z,12.60
2023-02-08T12:36:30.083Z,13.10
2023-02-08T12:39:24.043Z,13.10
2023-02-08T12:42:11.780Z,12.90
2023-02-08T12:45:00.805Z,13.00
2023-02-08T12:48:03.058Z,12.80
2023-02-08T12:50:43.867Z,12.70
2023-02-08T12:53:26.024Z,12.30
2023-02-08T12:55:59.159Z,13.70
2023-02-08T12:58:32.995Z,13.30
2023-02-08T13:01:09.484Z,12.40
2023-02-08T13:03:47.005Z,12.00
2023-02-08T13:06:24.432Z,13.20
2023-02-08T13:09:08.792Z,12.10
2023-02-08T13:11:45.525Z,12.20
2023-02-08T13:14:25.077Z,12.30
2023-02-08T13:16:59.590Z,13.30
2023-02-08T13:19:34.613Z,11.90
2023-02-08T13:22:07.524Z,12.60
2023-02-08T13:24:44.387Z,12.20
2023-02-08T13:30:04.840Z,12.60
2023-02-08T13:32:43.561Z,12.00
2023-02-08T13:35:19.245Z,12.80
2023-02-08T13:38:07.130Z,12.60
2023-02-08T13:40:44.363Z,12.50
2023-02-08T13:43:35.508Z,11.80
2023-02-08T13:46:07.582Z,13.10
2023-02-08T13:48:49.049Z,11.60
2023-02-08T13:52:03.810Z,11.60
2023-02-08T13:54:34.265Z,12.40
2023-02-08T13:57:53.774Z,11.00
2023-02-08T14:00:27.038Z,12.90
2023-02-08T14:03:05.689Z,12.90
2023-02-08T14:05:58.061Z,12.20
2023-02-08T14:08:33.304Z,13.30
2023-02-08T14:11:15.465Z,11.90
2023-02-08T14:13:55.466Z,11.70
2023-02-08T14:16:30.344Z,11.90
2023-02-08T14:19:02.728Z,11.80
2023-02-08T14:21:40.356Z,11.30
2023-02-08T14:24:22.475Z,11.70
2023-02-08T14:26:53.825Z,13.00
2023-02-08T14:29:30.896Z,11.60
2023-02-08T14:32:02.067Z,12.20
2023-02-08T14:34:35.161Z,11.50
2023-02-08T14:37:08.770Z,13.00
2023-02-08T14:39:40.129Z,10.30
2023-02-08T14:42:14.497Z,12.30
2023-02-08T14:45:06.941Z,10.70
2023-02-08T14:48:19.408Z,10.40
2023-02-08T14:53:31.998Z,11.30
2023-02-08T14:56:08.128Z,11.50
2023-02-08T14:58:45.328Z,13.00
2023-02-08T15:01:24.213Z,13.00
2023-02-08T15:04:01.295Z,12.70
2023-02-08T15:06:57.852Z,12.60
2023-02-08T15:09:31.203Z,11.70
2023-02-08T15:12:05.394Z,13.10
2023-02-08T15:14:39.227Z,12.40
2023-02-08T15:17:23.161Z,12.20
2023-02-08T15:19:55.321Z,11.40
2023-02-08T15:22:35.718Z,11.80
2023-02-08T15:25:24.084Z,11.30
2023-02-08T15:27:56.350Z,11.10
2023-02-08T15:30:36.334Z,11.50
2023-02-08T15:33:17.265Z,11.40
2023-02-08T15:35:48.387Z,12.40
2023-02-08T15:38:21.634Z,11.40
2023-02-08T15:41:07.905Z,12.70
2023-02-08T15:43:39.037Z,11.40
2023-02-08T15:46:19.785Z,11.90
2023-02-08T15:48:54.609Z,11.00
2023-02-08T15:51:25.463Z,11.80
2023-02-08T15:53:59.868Z,10.90
2023-02-08T15:56:37.976Z,11.50
2023-02-08T15:59:17.649Z,11.90
2023-02-08T16:01:50.388Z,10.80
2023-02-08T16:04:23.821Z,11.20
2023-02-08T16:06:56.122Z,10.80
2023-02-08T16:09:33.066Z,12.10
2023-02-08T16:12:03.974Z,9.80
2023-02-08T16:14:47.369Z,11.30
2023-02-08T16:17:48.876Z,9.30
2023-02-08T16:20:33.685Z,8.90
2023-02-08T16:23:05.738Z,9.20
2023-02-08T16:25:39.085Z,11.10
2023-02-08T16:28:09.388Z,10.10
2023-02-08T16:30:39.719Z,10.90
2023-02-08T16:33:11.254Z,11.20
2023-02-08T16:35:44.223Z,10.40
2023-02-08T16:38:24.438Z,10.50
2023-02-08T16:40:55.700Z,11.60
2023-02-08T16:43:26.422Z,10.50
2023-02-08T16:46:26.913Z,9.70
2023-02-08T16:48:58.697Z,11.10
2023-02-08T16:51:35.863Z,11.00
2023-02-08T16:54:11.596Z,11.20
2023-02-08T16:56:44.465Z,10.20
2023-02-08T16:59:15.222Z,10.90
2023-02-08T17:01:48.186Z,11.30
2023-02-08T17:04:26.547Z,10.40
2023-02-08T17:06:59.985Z,11.10
2023-02-08T17:09:30.165Z,9.60
2023-02-08T17:22:35.975Z,10.30
2023-02-08T17:25:06.079Z,11.30
2023-02-08T17:27:36.563Z,8.40
2023-02-08T17:32:37.189Z,8.60
2023-02-08T17:35:07.417Z,9.60
2023-02-08T17:37:40.184Z,10.20
2023-02-08T17:40:11.897Z,10.00
2023-02-08T17:45:22.225Z,9.90
2023-02-08T17:47:52.969Z,9.80
2023-02-08T17:50:23.897Z,9.70
2023-02-08T17:52:59.960Z,9.70
2023-02-08T17:55:30.168Z,9.90
2023-02-08T17:58:00.469Z,10.00
2023-02-08T18:00:35.038Z,9.80
2023-02-08T18:03:05.324Z,10.20
2023-02-08T18:05:35.735Z,9.70
2023-02-08T18:08:08.948Z,10.00
2023-02-08T18:10:39.055Z,10.20
2023-02-08T18:13:09.115Z,10.40
2023-02-08T18:15:39.399Z,9.30
2023-02-08T18:18:09.598Z,8.50
2023-02-08T18:20:40.257Z,9.50
2023-02-08T18:23:13.103Z,11.50
2023-02-08T18:25:44.162Z,7.70
2023-02-08T18:30:47.538Z,8.50
2023-02-08T18:35:51.880Z,8.00
2023-02-08T18:38:29.365Z,8.70
2023-02-08T18:40:59.747Z,7.20
2023-02-08T18:46:05.508Z,8.80
2023-02-08T18:51:06.298Z,9.80
2023-02-08T18:56:13.848Z,9.10
2023-02-08T18:58:44.383Z,6.40
2023-02-08T19:01:17.109Z,7.90
2023-02-08T19:06:22.525Z,8.40
2023-02-08T19:08:56.811Z,8.30
2023-02-08T19:11:35.429Z,9.10
2023-02-08T19:14:07.791Z,7.40
2023-02-08T19:16:39.676Z,8.10
2023-02-08T19:19:10.262Z,8.60
2023-02-08T19:21:41.443Z,8.40
2023-02-08T19:24:15.678Z,8.00
2023-02-08T19:26:45.845Z,6.60
2023-02-08T19:29:17.947Z,7.80
2023-02-08T19:31:50.217Z,8.30
2023-02-08T19:36:53.087Z,8.20
2023-02-08T19:39:28.674Z,7.70
2023-02-08T19:41:59.615Z,6.40
2023-02-08T19:44:30.717Z,5.60
2023-02-08T19:49:31.759Z,6.10
2023-02-08T19:52:01.941Z,6.30
2023-02-08T19:54:34.611Z,7.70
2023-02-08T20:04:36.583Z,8.30
2023-02-08T20:07:08.227Z,7.40
2023-02-08T20:09:41.010Z,7.80
2023-02-08T20:12:11.221Z,7.50
2023-02-08T20:14:41.297Z,5.70
2023-02-08T20:17:11.378Z,8.30
2023-02-08T20:19:41.507Z,6.40
2023-02-08T20:24:44.393Z,5.70
2023-02-08T20:27:14.487Z,5.30
2023-02-08T20:29:44.528Z,7.20
2023-02-08T20:34:58.481Z,7.70
2023-02-08T20:40:02.324Z,7.00
2023-02-08T20:42:32.738Z,5.90
2023-02-08T20:55:22.808Z,7.00
2023-02-08T21:00:27.912Z,6.90
2023-02-08T21:03:03.574Z,5.20
2023-02-08T21:05:33.856Z,5.40
2023-02-08T21:08:03.975Z,4.60
2023-02-08T21:10:38.993Z,7.40
2023-02-08T21:13:09.100Z,7.50
2023-02-08T21:18:09.691Z,6.00
2023-02-08T21:20:41.562Z,6.90
2023-02-08T21:23:11.728Z,7.50
2023-02-08T21:25:45.345Z,6.60
2023-02-08T21:33:17.008Z,6.90
2023-02-08T21:35:46.990Z,7.00
2023-02-08T21:38:17.073Z,7.00
2023-02-08T21:40:49.781Z,6.60
2023-02-08T21:43:19.843Z,6.70
2023-02-08T21:51:05.924Z,6.40
2023-02-08T21:56:21.498Z,5.50
2023-02-08T22:03:52.283Z,6.10
2023-02-08T22:11:37.943Z,6.00
2023-02-08T22:14:08.020Z,5.30
2023-02-08T22:19:08.978Z,6.20
2023-02-08T22:26:43.998Z,5.90
2023-02-08T22:36:45.095Z,6.80
2023-02-08T22:39:15.574Z,5.90
2023-02-08T22:41:48.384Z,6.10
2023-02-08T22:51:49.591Z,4.60
2023-02-08T22:54:19.962Z,5.40
2023-02-08T22:56:52.921Z,6.30
2023-02-08T23:01:53.307Z,6.40
2023-02-08T23:04:23.693Z,4.20
2023-02-08T23:06:53.880Z,6.30
2023-02-08T23:09:24.063Z,9.60
2023-02-08T23:11:56.837Z,5.80
2023-02-08T23:16:57.248Z,6.40
2023-02-08T23:19:27.814Z,5.80
2023-02-08T23:22:00.975Z,5.70
2023-02-08T23:24:31.505Z,6.50
2023-02-08T23:27:04.182Z,5.70
2023-02-08T23:29:34.319Z,5.70
2023-02-08T23:32:04.373Z,5.80
2023-02-08T23:34:34.510Z,6.20
2023-02-08T23:39:36.430Z,6.00
2023-02-08T23:42:25.518Z,6.10
2023-02-08T23:47:27.563Z,6.10
2023-02-08T23:52:28.120Z,6.70
2023-02-08T23:57:34.639Z,5.70
